Edna T. Gattle — WDD2528 — position and weather

sailwx.info

Track history (hours):
 
Tides and Currents Weather Stations Pressure Air Temp Water Temp Dewpoint Dewpoint Depression Visibility Wind Speed Wind Dir Waves Ship Positions

Edna T. Gattle

Owner: Terral RiverService, Inc., Lake Providence, LA. More information available from US FCC via Universal Licensing System and Coast Guard Vessel Documentation Center.

Last reported at 2014-Oct-26 15:33 UTC. Time now 2014-Oct-31 17:56 UTC.
Position N 30°08' W 091°30'.

Length 33 m; draft 2.6 m.

Type: Towing. MMSI: 367116420.

Date/timePositionNaut miles runAvg speedWind from/ knotsBaromVisibWave heightAir tempDewpointWater temp
2014-Oct-26 15:33N 30°08' W 091°30'7 6.8
2014-Oct-26 14:33N 30°02' W 091°29'8 7.6
2014-Oct-26 13:33N 29°54' W 091°27'8 7.6
2014-Oct-26 12:33N 29°48' W 091°22'6 6.4
2014-Oct-26 11:33N 29°46' W 091°15'6 5.6
2014-Oct-26 10:33N 29°40' W 091°14'6 6.2
2014-Oct-26 09:33N 29°38' W 091°21'4 4.1
2014-Oct-26 08:33N 29°39' W 091°25'1 1.3
2014-Oct-26 07:33N 29°40' W 091°27'1 1.2
2014-Oct-26 06:33N 29°41' W 091°28'0 0.0
2014-Oct-26 05:33N 29°41' W 091°28'0 0.0
2014-Oct-26 04:33N 29°41' W 091°28'0 0.0
2014-Oct-26 03:33N 29°41' W 091°28'0 0.0
2014-Oct-26 02:33N 29°41' W 091°28'0 0.0
2014-Oct-26 01:33N 29°41' W 091°28'0 0.3
2014-Oct-26 00:33N 29°41' W 091°28'5 4.8
2014-Oct-25 23:32N 29°43' W 091°33'4 0.5
2014-Oct-25 14:30N 29°46' W 091°37'5 5.6
2014-Oct-25 13:33N 29°42' W 091°32'6 5.8
2014-Oct-25 12:33N 29°40' W 091°26'6 5.8
2014-Oct-25 11:33N 29°38' W 091°20'6 6.0
2014-Oct-25 10:33N 29°41' W 091°13'6 5.7
2014-Oct-25 09:33N 29°46' W 091°16'7 6.9
2014-Oct-25 08:33N 29°49' W 091°23'8 8.1
2014-Oct-25 07:33N 29°56' W 091°28'9 7.8
2014-Oct-25 06:26N 30°05' W 091°28'10 8.4
2014-Oct-25 05:13N 30°14' W 091°34'6 0.3
2014-Oct-24 09:16N 30°19' W 091°37'11 6.4
2014-Oct-24 07:33N 30°09' W 091°31'12 6.1
2014-Oct-24 05:33N 29°57' W 091°28'6 6.4
2014-Oct-24 04:33N 29°52' W 091°25'7 6.7
2014-Oct-24 03:33N 29°46' W 091°20'6 6.2
2014-Oct-24 02:33N 29°44' W 091°14'6 5.6
2014-Oct-24 01:33N 29°41' W 091°09'2 2.3
2014-Oct-24 00:33N 29°41' W 091°06'1 0.8
2014-Oct-23 23:33N 29°41' W 091°06'0 0.1
2014-Oct-23 22:33N 29°41' W 091°06'0 0.5
2014-Oct-23 21:33N 29°41' W 091°06'0 0.0
2014-Oct-23 20:33N 29°41' W 091°06'0 0.0
2014-Oct-23 19:33N 29°41' W 091°06'0 0.0
2014-Oct-23 18:33N 29°41' W 091°06'0 0.0
2014-Oct-23 17:33N 29°41' W 091°06'0 0.0
2014-Oct-23 16:33N 29°41' W 091°06'0 0.0
2014-Oct-23 15:33N 29°41' W 091°06'0 0.0
2014-Oct-23 14:33N 29°41' W 091°06'0 0.0
2014-Oct-23 13:33N 29°41' W 091°06'0 0.0
2014-Oct-23 12:33N 29°41' W 091°06'0 0.0
2014-Oct-23 11:33N 29°41' W 091°06'0 0.0
2014-Oct-23 10:33N 29°41' W 091°06'0 0.0
2014-Oct-23 09:33N 29°41' W 091°06'0 0.0
2014-Oct-23 08:33N 29°41' W 091°06'0 0.0
2014-Oct-23 07:33N 29°41' W 091°06'0 0.0
2014-Oct-23 06:33N 29°41' W 091°06'0 0.0
2014-Oct-23 05:33N 29°41' W 091°06'0 0.0
2014-Oct-23 04:33N 29°41' W 091°06'0 0.0
2014-Oct-23 03:33N 29°41' W 091°06'0 0.0
2014-Oct-23 02:33N 29°41' W 091°06'0 0.0
2014-Oct-23 01:33N 29°41' W 091°06'0 0.0
2014-Oct-23 00:33N 29°41' W 091°06'0 0.0
2014-Oct-22 23:34N 29°41' W 091°06'0 0.0
2014-Oct-22 22:33N 29°41' W 091°06'0 0.0
2014-Oct-22 21:33N 29°41' W 091°06'0 0.0
2014-Oct-22 20:33N 29°41' W 091°06'0 0.0
2014-Oct-22 19:33N 29°41' W 091°06'0 0.0
2014-Oct-22 18:33N 29°41' W 091°06'0 0.0
2014-Oct-22 17:33N 29°41' W 091°06'0 0.0
2014-Oct-22 16:33N 29°41' W 091°06'0 0.0
2014-Oct-22 15:33N 29°41' W 091°06'0 0.0
2014-Oct-22 14:33N 29°41' W 091°06'0 0.0
2014-Oct-22 13:33N 29°41' W 091°06'0 0.0
2014-Oct-22 12:33N 29°41' W 091°06'0 0.0
2014-Oct-22 11:33N 29°41' W 091°06'0 0.0
2014-Oct-22 10:33N 29°41' W 091°06'0 0.0
2014-Oct-22 09:33N 29°41' W 091°06'0 0.0
2014-Oct-22 08:33N 29°41' W 091°06'0 0.0
2014-Oct-22 07:33N 29°41' W 091°06'0 0.0
2014-Oct-22 06:33N 29°41' W 091°06'0 0.0
2014-Oct-22 05:33N 29°41' W 091°06'0 0.0
2014-Oct-22 04:33N 29°41' W 091°06'0 0.0
2014-Oct-22 03:33N 29°41' W 091°06'0 0.0
2014-Oct-22 02:33N 29°41' W 091°06'0 0.0
2014-Oct-22 01:33N 29°41' W 091°06'0 0.0
2014-Oct-22 00:33N 29°41' W 091°06'0 0.0
2014-Oct-21 23:33N 29°41' W 091°06'0 0.0
2014-Oct-21 20:21N 29°41' W 091°06'0 0.0
2014-Oct-21 19:33N 29°41' W 091°06'0 0.0
2014-Oct-21 18:33N 29°41' W 091°06'0 0.0
2014-Oct-21 17:33N 29°41' W 091°06'0 0.0
2014-Oct-21 16:33N 29°41' W 091°06'0 0.0
2014-Oct-21 15:33N 29°41' W 091°06'0 0.0
2014-Oct-21 14:33N 29°41' W 091°06'0 0.0
2014-Oct-21 13:33N 29°41' W 091°06'0 0.0
2014-Oct-21 12:33N 29°41' W 091°06'0 0.0
2014-Oct-21 11:33N 29°41' W 091°06'0 0.0
2014-Oct-21 10:33N 29°41' W 091°06'0 0.0
2014-Oct-21 09:33N 29°41' W 091°06'0 0.0
2014-Oct-21 08:33N 29°41' W 091°06'0 0.0
2014-Oct-21 07:33N 29°41' W 091°06'0 0.0
2014-Oct-21 06:33N 29°41' W 091°06'0 0.0
2014-Oct-21 05:33N 29°41' W 091°06'0 0.0
2014-Oct-21 04:33N 29°41' W 091°06'0 0.0
2014-Oct-21 03:33N 29°41' W 091°06'0 0.0
2014-Oct-21 02:33N 29°41' W 091°06'0 0.0
2014-Oct-21 01:33N 29°41' W 091°06'0 0.0
2014-Oct-21 00:33N 29°41' W 091°06'0 0.0
2014-Oct-20 23:33N 29°41' W 091°06'0 0.0
2014-Oct-20 22:33N 29°41' W 091°06'0 0.0
2014-Oct-20 21:33N 29°41' W 091°06'0 0.0
2014-Oct-20 20:33N 29°41' W 091°06'0 0.0
2014-Oct-20 19:33N 29°41' W 091°06'0 0.0
2014-Oct-20 18:33N 29°41' W 091°06'0 0.0
2014-Oct-20 17:33N 29°41' W 091°06'0 0.0
2014-Oct-20 16:33N 29°41' W 091°06'0 0.0
2014-Oct-20 15:33N 29°41' W 091°06'0 0.0
2014-Oct-20 14:33N 29°41' W 091°06'0 0.0
2014-Oct-20 13:33N 29°41' W 091°06'0 0.0
2014-Oct-20 12:33N 29°41' W 091°06'0 0.0
2014-Oct-20 11:33N 29°41' W 091°06'0 0.0
2014-Oct-20 10:33N 29°41' W 091°06'0 0.0
2014-Oct-20 09:33N 29°41' W 091°06'0 0.0
2014-Oct-20 08:33N 29°41' W 091°06'0 0.0
2014-Oct-20 07:33N 29°41' W 091°06'0 0.0
2014-Oct-20 06:34N 29°41' W 091°06'0 0.0
2014-Oct-20 05:34N 29°41' W 091°06'0 0.0
2014-Oct-20 04:33N 29°41' W 091°06'0 0.0
2014-Oct-20 03:33N 29°41' W 091°06'0 0.0
2014-Oct-20 02:34N 29°41' W 091°06'0 0.0
2014-Oct-20 01:33N 29°41' W 091°06'0 0.0
2014-Oct-20 00:33N 29°41' W 091°06'0 0.0
2014-Oct-19 23:33N 29°41' W 091°06'0 0.0
2014-Oct-19 22:33N 29°41' W 091°06'0 0.0
2014-Oct-19 21:33N 29°41' W 091°06'0 0.0
2014-Oct-19 20:33N 29°41' W 091°06'0 0.0
2014-Oct-19 19:33N 29°41' W 091°06'0 0.0
2014-Oct-19 18:33N 29°41' W 091°06'0 0.0
2014-Oct-19 17:33N 29°41' W 091°06'0 0.0
2014-Oct-19 16:33N 29°41' W 091°06'0 0.0
2014-Oct-19 15:33N 29°41' W 091°06'0 0.0
2014-Oct-19 13:26N 29°41' W 091°06'0 0.0
2014-Oct-19 12:33N 29°41' W 091°06'0 0.0
2014-Oct-19 11:33N 29°41' W 091°06'0 0.0
2014-Oct-19 10:33N 29°41' W 091°06'0 0.0
2014-Oct-19 09:33N 29°41' W 091°06'0 0.0
2014-Oct-19 08:33N 29°41' W 091°06'0 0.0
2014-Oct-19 07:33N 29°41' W 091°06'0 0.0
2014-Oct-19 06:33N 29°41' W 091°06'0 0.0
2014-Oct-19 05:33N 29°41' W 091°06'0 0.0
2014-Oct-19 04:33N 29°41' W 091°06'0 0.0
2014-Oct-19 03:33N 29°41' W 091°06'0 0.0
2014-Oct-19 02:33N 29°41' W 091°06'0 0.0
2014-Oct-19 01:33N 29°41' W 091°06'0 0.4
2014-Oct-19 00:33N 29°41' W 091°06'3 2.9
2014-Oct-18 23:33N 29°41' W 091°09'5 4.9
2014-Oct-18 22:33N 29°44' W 091°14'8 7.8
2014-Oct-18 21:33N 29°47' W 091°22'9 9.0
2014-Oct-18 20:32N 29°55' W 091°28'  
Track history (hours):
 
Tides and Currents Weather Stations Pressure Air Temp Water Temp Dewpoint Dewpoint Depression Visibility Wind Speed Wind Dir Waves Ship Positions

Edna T. Gattle

Owner: Terral RiverService, Inc., Lake Providence, LA. More information available from US FCC via Universal Licensing System and Coast Guard Vessel Documentation Center.

Last reported at 2014-Oct-26 15:33 UTC. Time now 2014-Oct-31 17:56 UTC.
Position N 30°08' W 091°30'.

Length 33 m; draft 2.6 m.

Type: Towing. MMSI: 367116420.

Date/timePositionNaut miles runAvg speedWind from/ knotsBaromVisibWave heightAir tempDewpointWater temp
2014-Oct-26 15:33N 30°08' W 091°30'7 6.8
2014-Oct-26 14:33N 30°02' W 091°29'8 7.6
2014-Oct-26 13:33N 29°54' W 091°27'8 7.6
2014-Oct-26 12:33N 29°48' W 091°22'6 6.4
2014-Oct-26 11:33N 29°46' W 091°15'6 5.6
2014-Oct-26 10:33N 29°40' W 091°14'6 6.2
2014-Oct-26 09:33N 29°38' W 091°21'4 4.1
2014-Oct-26 08:33N 29°39' W 091°25'1 1.3
2014-Oct-26 07:33N 29°40' W 091°27'1 1.2
2014-Oct-26 06:33N 29°41' W 091°28'0 0.0
2014-Oct-26 05:33N 29°41' W 091°28'0 0.0
2014-Oct-26 04:33N 29°41' W 091°28'0 0.0
2014-Oct-26 03:33N 29°41' W 091°28'0 0.0
2014-Oct-26 02:33N 29°41' W 091°28'0 0.0
2014-Oct-26 01:33N 29°41' W 091°28'0 0.3
2014-Oct-26 00:33N 29°41' W 091°28'5 4.8
2014-Oct-25 23:32N 29°43' W 091°33'4 0.5
2014-Oct-25 14:30N 29°46' W 091°37'5 5.6
2014-Oct-25 13:33N 29°42' W 091°32'6 5.8
2014-Oct-25 12:33N 29°40' W 091°26'6 5.8
2014-Oct-25 11:33N 29°38' W 091°20'6 6.0
2014-Oct-25 10:33N 29°41' W 091°13'6 5.7
2014-Oct-25 09:33N 29°46' W 091°16'7 6.9
2014-Oct-25 08:33N 29°49' W 091°23'8 8.1
2014-Oct-25 07:33N 29°56' W 091°28'9 7.8
2014-Oct-25 06:26N 30°05' W 091°28'10 8.4
2014-Oct-25 05:13N 30°14' W 091°34'6 0.3
2014-Oct-24 09:16N 30°19' W 091°37'11 6.4
2014-Oct-24 07:33N 30°09' W 091°31'12 6.1
2014-Oct-24 05:33N 29°57' W 091°28'6 6.4
2014-Oct-24 04:33N 29°52' W 091°25'7 6.7
2014-Oct-24 03:33N 29°46' W 091°20'6 6.2
2014-Oct-24 02:33N 29°44' W 091°14'6 5.6
2014-Oct-24 01:33N 29°41' W 091°09'2 2.3
2014-Oct-24 00:33N 29°41' W 091°06'1 0.8
2014-Oct-23 23:33N 29°41' W 091°06'0 0.1
2014-Oct-23 22:33N 29°41' W 091°06'0 0.5
2014-Oct-23 21:33N 29°41' W 091°06'0 0.0
2014-Oct-23 20:33N 29°41' W 091°06'0 0.0
2014-Oct-23 19:33N 29°41' W 091°06'0 0.0
2014-Oct-23 18:33N 29°41' W 091°06'0 0.0
2014-Oct-23 17:33N 29°41' W 091°06'0 0.0
2014-Oct-23 16:33N 29°41' W 091°06'0 0.0
2014-Oct-23 15:33N 29°41' W 091°06'0 0.0
2014-Oct-23 14:33N 29°41' W 091°06'0 0.0
2014-Oct-23 13:33N 29°41' W 091°06'0 0.0
2014-Oct-23 12:33N 29°41' W 091°06'0 0.0
2014-Oct-23 11:33N 29°41' W 091°06'0 0.0
2014-Oct-23 10:33N 29°41' W 091°06'0 0.0
2014-Oct-23 09:33N 29°41' W 091°06'0 0.0
2014-Oct-23 08:33N 29°41' W 091°06'0 0.0
2014-Oct-23 07:33N 29°41' W 091°06'0 0.0
2014-Oct-23 06:33N 29°41' W 091°06'0 0.0
2014-Oct-23 05:33N 29°41' W 091°06'0 0.0
2014-Oct-23 04:33N 29°41' W 091°06'0 0.0
2014-Oct-23 03:33N 29°41' W 091°06'0 0.0
2014-Oct-23 02:33N 29°41' W 091°06'0 0.0
2014-Oct-23 01:33N 29°41' W 091°06'0 0.0
2014-Oct-23 00:33N 29°41' W 091°06'0 0.0
2014-Oct-22 23:34N 29°41' W 091°06'0 0.0
2014-Oct-22 22:33N 29°41' W 091°06'0 0.0
2014-Oct-22 21:33N 29°41' W 091°06'0 0.0
2014-Oct-22 20:33N 29°41' W 091°06'0 0.0
2014-Oct-22 19:33N 29°41' W 091°06'0 0.0
2014-Oct-22 18:33N 29°41' W 091°06'0 0.0
2014-Oct-22 17:33N 29°41' W 091°06'0 0.0
2014-Oct-22 16:33N 29°41' W 091°06'0 0.0
2014-Oct-22 15:33N 29°41' W 091°06'0 0.0
2014-Oct-22 14:33N 29°41' W 091°06'0 0.0
2014-Oct-22 13:33N 29°41' W 091°06'0 0.0
2014-Oct-22 12:33N 29°41' W 091°06'0 0.0
2014-Oct-22 11:33N 29°41' W 091°06'0 0.0
2014-Oct-22 10:33N 29°41' W 091°06'0 0.0
2014-Oct-22 09:33N 29°41' W 091°06'0 0.0
2014-Oct-22 08:33N 29°41' W 091°06'0 0.0
2014-Oct-22 07:33N 29°41' W 091°06'0 0.0
2014-Oct-22 06:33N 29°41' W 091°06'0 0.0
2014-Oct-22 05:33N 29°41' W 091°06'0 0.0
2014-Oct-22 04:33N 29°41' W 091°06'0 0.0
2014-Oct-22 03:33N 29°41' W 091°06'0 0.0
2014-Oct-22 02:33N 29°41' W 091°06'0 0.0
2014-Oct-22 01:33N 29°41' W 091°06'0 0.0
2014-Oct-22 00:33N 29°41' W 091°06'0 0.0
2014-Oct-21 23:33N 29°41' W 091°06'0 0.0
2014-Oct-21 20:21N 29°41' W 091°06'0 0.0
2014-Oct-21 19:33N 29°41' W 091°06'0 0.0
2014-Oct-21 18:33N 29°41' W 091°06'0 0.0
2014-Oct-21 17:33N 29°41' W 091°06'0 0.0
2014-Oct-21 16:33N 29°41' W 091°06'0 0.0
2014-Oct-21 15:33N 29°41' W 091°06'0 0.0
2014-Oct-21 14:33N 29°41' W 091°06'0 0.0
2014-Oct-21 13:33N 29°41' W 091°06'0 0.0
2014-Oct-21 12:33N 29°41' W 091°06'0 0.0
2014-Oct-21 11:33N 29°41' W 091°06'0 0.0
2014-Oct-21 10:33N 29°41' W 091°06'0 0.0
2014-Oct-21 09:33N 29°41' W 091°06'0 0.0
2014-Oct-21 08:33N 29°41' W 091°06'0 0.0
2014-Oct-21 07:33N 29°41' W 091°06'0 0.0
2014-Oct-21 06:33N 29°41' W 091°06'0 0.0
2014-Oct-21 05:33N 29°41' W 091°06'0 0.0
2014-Oct-21 04:33N 29°41' W 091°06'0 0.0
2014-Oct-21 03:33N 29°41' W 091°06'0 0.0
2014-Oct-21 02:33N 29°41' W 091°06'0 0.0
2014-Oct-21 01:33N 29°41' W 091°06'0 0.0
2014-Oct-21 00:33N 29°41' W 091°06'0 0.0
2014-Oct-20 23:33N 29°41' W 091°06'0 0.0
2014-Oct-20 22:33N 29°41' W 091°06'0 0.0
2014-Oct-20 21:33N 29°41' W 091°06'0 0.0
2014-Oct-20 20:33N 29°41' W 091°06'0 0.0
2014-Oct-20 19:33N 29°41' W 091°06'0 0.0
2014-Oct-20 18:33N 29°41' W 091°06'0 0.0
2014-Oct-20 17:33N 29°41' W 091°06'0 0.0
2014-Oct-20 16:33N 29°41' W 091°06'0 0.0
2014-Oct-20 15:33N 29°41' W 091°06'0 0.0
2014-Oct-20 14:33N 29°41' W 091°06'0 0.0
2014-Oct-20 13:33N 29°41' W 091°06'0 0.0
2014-Oct-20 12:33N 29°41' W 091°06'0 0.0
2014-Oct-20 11:33N 29°41' W 091°06'0 0.0
2014-Oct-20 10:33N 29°41' W 091°06'0 0.0
2014-Oct-20 09:33N 29°41' W 091°06'0 0.0
2014-Oct-20 08:33N 29°41' W 091°06'0 0.0
2014-Oct-20 07:33N 29°41' W 091°06'0 0.0
2014-Oct-20 06:34N 29°41' W 091°06'0 0.0
2014-Oct-20 05:34N 29°41' W 091°06'0 0.0
2014-Oct-20 04:33N 29°41' W 091°06'0 0.0
2014-Oct-20 03:33N 29°41' W 091°06'0 0.0
2014-Oct-20 02:34N 29°41' W 091°06'0 0.0
2014-Oct-20 01:33N 29°41' W 091°06'0 0.0
2014-Oct-20 00:33N 29°41' W 091°06'0 0.0
2014-Oct-19 23:33N 29°41' W 091°06'0 0.0
2014-Oct-19 22:33N 29°41' W 091°06'0 0.0
2014-Oct-19 21:33N 29°41' W 091°06'0 0.0
2014-Oct-19 20:33N 29°41' W 091°06'0 0.0
2014-Oct-19 19:33N 29°41' W 091°06'0 0.0
2014-Oct-19 18:33N 29°41' W 091°06'0 0.0
2014-Oct-19 17:33N 29°41' W 091°06'0 0.0
2014-Oct-19 16:33N 29°41' W 091°06'0 0.0
2014-Oct-19 15:33N 29°41' W 091°06'0 0.0
2014-Oct-19 13:26N 29°41' W 091°06'0 0.0
2014-Oct-19 12:33N 29°41' W 091°06'0 0.0
2014-Oct-19 11:33N 29°41' W 091°06'0 0.0
2014-Oct-19 10:33N 29°41' W 091°06'0 0.0
2014-Oct-19 09:33N 29°41' W 091°06'0 0.0
2014-Oct-19 08:33N 29°41' W 091°06'0 0.0
2014-Oct-19 07:33N 29°41' W 091°06'0 0.0
2014-Oct-19 06:33N 29°41' W 091°06'0 0.0
2014-Oct-19 05:33N 29°41' W 091°06'0 0.0
2014-Oct-19 04:33N 29°41' W 091°06'0 0.0
2014-Oct-19 03:33N 29°41' W 091°06'0 0.0
2014-Oct-19 02:33N 29°41' W 091°06'0 0.0
2014-Oct-19 01:33N 29°41' W 091°06'0 0.4
2014-Oct-19 00:33N 29°41' W 091°06'3 2.9
2014-Oct-18 23:33N 29°41' W 091°09'5 4.9
2014-Oct-18 22:33N 29°44' W 091°14'8 7.8
2014-Oct-18 21:33N 29°47' W 091°22'9 9.0
2014-Oct-18 20:32N 29°55' W 091°28'  

Dump ship's entire track history